sensor_id;sensor_type;location;lat;lon;timestamp;temperature;humidity
12015;DHT22;6066;48.138;16.402;2022-10-22T00:02:22;9.30;99.90
12015;DHT22;6066;48.138;16.402;2022-10-22T00:04:49;9.30;99.90
12015;DHT22;6066;48.138;16.402;2022-10-22T00:07:20;9.30;99.90
12015;DHT22;6066;48.138;16.402;2022-10-22T00:09:47;9.20;99.90
12015;DHT22;6066;48.138;16.402;2022-10-22T00:12:16;9.20;99.90
12015;DHT22;6066;48.138;16.402;2022-10-22T00:14:45;9.20;99.90
12015;DHT22;6066;48.138;16.402;2022-10-22T00:17:12;9.10;99.90
12015;DHT22;6066;48.138;16.402;2022-10-22T00:19:40;9.10;99.90
12015;DHT22;6066;48.138;16.402;2022-10-22T00:22:08;9.10;99.90
12015;DHT22;6066;48.138;16.402;2022-10-22T00:24:38;9.10;99.90
12015;DHT22;6066;48.138;16.402;2022-10-22T00:27:07;9.10;99.90
12015;DHT22;6066;48.138;16.402;2022-10-22T00:29:35;9.10;99.90
12015;DHT22;6066;48.138;16.402;2022-10-22T00:32:03;9.00;99.90
12015;DHT22;6066;48.138;16.402;2022-10-22T00:34:30;9.00;99.90
12015;DHT22;6066;48.138;16.402;2022-10-22T00:36:57;9.00;99.90
12015;DHT22;6066;48.138;16.402;2022-10-22T00:39:25;9.00;99.90
12015;DHT22;6066;48.138;16.402;2022-10-22T00:41:54;9.00;99.90
12015;DHT22;6066;48.138;16.402;2022-10-22T00:47:06;8.90;99.90
12015;DHT22;6066;48.138;16.402;2022-10-22T00:49:32;8.90;99.90
12015;DHT22;6066;48.138;16.402;2022-10-22T00:51:59;8.80;99.90
12015;DHT22;6066;48.138;16.402;2022-10-22T00:54:26;8.80;99.90
12015;DHT22;6066;48.138;16.402;2022-10-22T00:56:54;8.70;99.90
12015;DHT22;6066;48.138;16.402;2022-10-22T00:59:20;8.70;99.90
12015;DHT22;6066;48.138;16.402;2022-10-22T01:01:47;8.70;99.90
12015;DHT22;6066;48.138;16.402;2022-10-22T01:04:15;8.60;99.90
12015;DHT22;6066;48.138;16.402;2022-10-22T01:06:41;8.60;99.90
12015;DHT22;6066;48.138;16.402;2022-10-22T01:09:11;8.60;99.90
12015;DHT22;6066;48.138;16.402;2022-10-22T01:11:45;8.50;99.90
12015;DHT22;6066;48.138;16.402;2022-10-22T01:14:17;8.50;99.90
12015;DHT22;6066;48.138;16.402;2022-10-22T01:16:51;8.50;99.90
12015;DHT22;6066;48.138;16.402;2022-10-22T01:19:28;8.50;99.90
12015;DHT22;6066;48.138;16.402;2022-10-22T01:21:58;8.50;99.90
12015;DHT22;6066;48.138;16.402;2022-10-22T01:24:27;8.50;99.90
12015;DHT22;6066;48.138;16.402;2022-10-22T01:26:59;8.50;99.90
12015;DHT22;6066;48.138;16.402;2022-10-22T01:29:32;8.60;99.90
12015;DHT22;6066;48.138;16.402;2022-10-22T01:32:00;8.60;99.90
12015;DHT22;6066;48.138;16.402;2022-10-22T01:34:27;8.70;99.90
12015;DHT22;6066;48.138;16.402;2022-10-22T01:36:55;8.70;99.90
12015;DHT22;6066;48.138;16.402;2022-10-22T01:39:22;8.80;99.90
12015;DHT22;6066;48.138;16.402;2022-10-22T01:41:53;8.80;99.90
12015;DHT22;6066;48.138;16.402;2022-10-22T01:44:23;8.80;99.90
12015;DHT22;6066;48.138;16.402;2022-10-22T01:46:51;8.80;99.90
12015;DHT22;6066;48.138;16.402;2022-10-22T01:49:21;8.80;99.90
12015;DHT22;6066;48.138;16.402;2022-10-22T01:51:52;8.80;99.90
12015;DHT22;6066;48.138;16.402;2022-10-22T01:54:27;8.80;99.90
12015;DHT22;6066;48.138;16.402;2022-10-22T01:56:58;8.70;99.90
12015;DHT22;6066;48.138;16.402;2022-10-22T01:59:31;8.70;99.90
12015;DHT22;6066;48.138;16.402;2022-10-22T02:02:02;8.60;99.90
12015;DHT22;6066;48.138;16.402;2022-10-22T02:04:31;8.50;99.90
12015;DHT22;6066;48.138;16.402;2022-10-22T02:07:00;8.50;99.90
12015;DHT22;6066;48.138;16.402;2022-10-22T02:09:27;8.40;99.90
12015;DHT22;6066;48.138;16.402;2022-10-22T02:11:54;8.40;99.90
12015;DHT22;6066;48.138;16.402;2022-10-22T02:14:22;8.30;99.90
12015;DHT22;6066;48.138;16.402;2022-10-22T02:16:50;8.30;99.90
12015;DHT22;6066;48.138;16.402;2022-10-22T02:19:21;8.30;99.90
12015;DHT22;6066;48.138;16.402;2022-10-22T02:21:50;8.30;99.90
12015;DHT22;6066;48.138;16.402;2022-10-22T02:24:16;8.30;99.90
12015;DHT22;6066;48.138;16.402;2022-10-22T02:26:45;8.30;99.90
12015;DHT22;6066;48.138;16.402;2022-10-22T02:29:14;8.30;99.90
12015;DHT22;6066;48.138;16.402;2022-10-22T02:31:44;8.30;99.90
12015;DHT22;6066;48.138;16.402;2022-10-22T02:34:13;8.30;99.90
12015;DHT22;6066;48.138;16.402;2022-10-22T02:36:43;8.30;99.90
12015;DHT22;6066;48.138;16.402;2022-10-22T02:39:10;8.30;99.90
12015;DHT22;6066;48.138;16.402;2022-10-22T02:41:38;8.30;99.90
12015;DHT22;6066;48.138;16.402;2022-10-22T02:44:06;8.30;99.90
12015;DHT22;6066;48.138;16.402;2022-10-22T02:46:34;8.30;99.90
12015;DHT22;6066;48.138;16.402;2022-10-22T02:49:00;8.20;99.90
12015;DHT22;6066;48.138;16.402;2022-10-22T02:51:27;8.20;99.90
12015;DHT22;6066;48.138;16.402;2022-10-22T02:53:55;8.20;99.90
12015;DHT22;6066;48.138;16.402;2022-10-22T02:56:22;8.10;99.90
12015;DHT22;6066;48.138;16.402;2022-10-22T02:58:48;8.10;99.90
12015;DHT22;6066;48.138;16.402;2022-10-22T03:01:15;8.10;99.90
12015;DHT22;6066;48.138;16.402;2022-10-22T03:03:42;8.10;99.90
12015;DHT22;6066;48.138;16.402;2022-10-22T03:06:08;8.00;99.90
12015;DHT22;6066;48.138;16.402;2022-10-22T03:08:35;8.00;99.90
12015;DHT22;6066;48.138;16.402;2022-10-22T03:11:03;8.00;99.90
12015;DHT22;6066;48.138;16.402;2022-10-22T03:13:30;7.90;99.90
12015;DHT22;6066;48.138;16.402;2022-10-22T03:15:56;7.90;99.90
12015;DHT22;6066;48.138;16.402;2022-10-22T03:18:23;7.80;99.90
12015;DHT22;6066;48.138;16.402;2022-10-22T03:20:52;7.80;99.90
12015;DHT22;6066;48.138;16.402;2022-10-22T03:23:24;7.70;99.90
12015;DHT22;6066;48.138;16.402;2022-10-22T03:25:51;7.70;99.90
12015;DHT22;6066;48.138;16.402;2022-10-22T03:28:19;7.70;99.90
12015;DHT22;6066;48.138;16.402;2022-10-22T03:30:46;7.70;99.90
12015;DHT22;6066;48.138;16.402;2022-10-22T03:33:12;7.70;99.90
12015;DHT22;6066;48.138;16.402;2022-10-22T03:35:39;7.70;99.90
12015;DHT22;6066;48.138;16.402;2022-10-22T03:38:08;7.70;99.90
12015;DHT22;6066;48.138;16.402;2022-10-22T03:40:34;7.70;99.90
12015;DHT22;6066;48.138;16.402;2022-10-22T03:43:01;7.80;99.90
12015;DHT22;6066;48.138;16.402;2022-10-22T03:45:29;7.70;99.90
12015;DHT22;6066;48.138;16.402;2022-10-22T03:47:56;7.70;99.90
12015;DHT22;6066;48.138;16.402;2022-10-22T03:50:22;7.70;99.90
12015;DHT22;6066;48.138;16.402;2022-10-22T03:52:49;7.60;99.90
12015;DHT22;6066;48.138;16.402;2022-10-22T03:55:17;7.60;99.90
12015;DHT22;6066;48.138;16.402;2022-10-22T03:57:44;7.60;99.90
12015;DHT22;6066;48.138;16.402;2022-10-22T04:00:11;7.60;99.90
12015;DHT22;6066;48.138;16.402;2022-10-22T04:02:39;7.60;99.90
12015;DHT22;6066;48.138;16.402;2022-10-22T04:05:06;7.70;99.90
12015;DHT22;6066;48.138;16.402;2022-10-22T04:07:32;7.80;99.90
12015;DHT22;6066;48.138;16.402;2022-10-22T04:09:59;7.80;99.90
12015;DHT22;6066;48.138;16.402;2022-10-22T04:12:26;7.80;99.90
12015;DHT22;6066;48.138;16.402;2022-10-22T04:14:52;7.80;99.90
12015;DHT22;6066;48.138;16.402;2022-10-22T04:17:19;7.80;99.90
12015;DHT22;6066;48.138;16.402;2022-10-22T04:19:47;7.80;99.90
12015;DHT22;6066;48.138;16.402;2022-10-22T04:22:14;7.80;99.90
12015;DHT22;6066;48.138;16.402;2022-10-22T04:24:40;7.80;99.90
12015;DHT22;6066;48.138;16.402;2022-10-22T04:27:07;7.80;99.90
12015;DHT22;6066;48.138;16.402;2022-10-22T04:29:34;7.70;99.90
12015;DHT22;6066;48.138;16.402;2022-10-22T04:32:00;7.70;99.90
12015;DHT22;6066;48.138;16.402;2022-10-22T04:34:27;7.60;99.90
12015;DHT22;6066;48.138;16.402;2022-10-22T04:36:55;7.60;99.90
12015;DHT22;6066;48.138;16.402;2022-10-22T04:39:22;7.60;99.90
12015;DHT22;6066;48.138;16.402;2022-10-22T04:41:48;7.60;99.90
12015;DHT22;6066;48.138;16.402;2022-10-22T04:44:15;7.60;99.90
12015;DHT22;6066;48.138;16.402;2022-10-22T04:46:42;7.50;99.90
12015;DHT22;6066;48.138;16.402;2022-10-22T04:49:09;7.50;99.90
12015;DHT22;6066;48.138;16.402;2022-10-22T04:51:35;7.60;99.90
12015;DHT22;6066;48.138;16.402;2022-10-22T04:54:04;7.60;99.90
12015;DHT22;6066;48.138;16.402;2022-10-22T04:56:30;7.60;99.90
12015;DHT22;6066;48.138;16.402;2022-10-22T04:58:58;7.60;99.90
12015;DHT22;6066;48.138;16.402;2022-10-22T05:01:25;7.70;99.90
12015;DHT22;6066;48.138;16.402;2022-10-22T05:03:53;7.70;99.90
12015;DHT22;6066;48.138;16.402;2022-10-22T05:06:21;7.70;99.90
12015;DHT22;6066;48.138;16.402;2022-10-22T05:08:47;7.70;99.90
12015;DHT22;6066;48.138;16.402;2022-10-22T05:11:19;7.80;99.90
12015;DHT22;6066;48.138;16.402;2022-10-22T05:13:46;7.80;99.90
12015;DHT22;6066;48.138;16.402;2022-10-22T05:16:13;7.90;99.90
12015;DHT22;6066;48.138;16.402;2022-10-22T05:18:41;7.90;99.90
12015;DHT22;6066;48.138;16.402;2022-10-22T05:21:08;7.90;99.90
12015;DHT22;6066;48.138;16.402;2022-10-22T05:23:35;7.90;99.90
12015;DHT22;6066;48.138;16.402;2022-10-22T05:26:02;8.00;99.90
12015;DHT22;6066;48.138;16.402;2022-10-22T05:28:30;8.00;99.90
12015;DHT22;6066;48.138;16.402;2022-10-22T05:30:57;8.00;99.90
12015;DHT22;6066;48.138;16.402;2022-10-22T05:33:25;8.10;99.90
12015;DHT22;6066;48.138;16.402;2022-10-22T05:35:51;8.10;99.90
12015;DHT22;6066;48.138;16.402;2022-10-22T05:38:18;8.10;99.90
12015;DHT22;6066;48.138;16.402;2022-10-22T05:40:45;8.10;99.90
12015;DHT22;6066;48.138;16.402;2022-10-22T05:43:12;8.10;99.90
12015;DHT22;6066;48.138;16.402;2022-10-22T05:45:40;8.10;99.90
12015;DHT22;6066;48.138;16.402;2022-10-22T05:48:08;8.20;99.90
12015;DHT22;6066;48.138;16.402;2022-10-22T05:50:35;8.20;99.90
12015;DHT22;6066;48.138;16.402;2022-10-22T05:53:01;8.20;99.90
12015;DHT22;6066;48.138;16.402;2022-10-22T05:55:28;8.20;99.90
12015;DHT22;6066;48.138;16.402;2022-10-22T05:57:55;8.30;99.90
12015;DHT22;6066;48.138;16.402;2022-10-22T06:00:21;8.30;99.90
12015;DHT22;6066;48.138;16.402;2022-10-22T06:02:50;8.40;99.90
12015;DHT22;6066;48.138;16.402;2022-10-22T06:05:17;8.40;99.90
12015;DHT22;6066;48.138;16.402;2022-10-22T06:07:43;8.40;99.90
12015;DHT22;6066;48.138;16.402;2022-10-22T06:10:13;8.50;99.90
12015;DHT22;6066;48.138;16.402;2022-10-22T06:12:40;8.50;99.90
12015;DHT22;6066;48.138;16.402;2022-10-22T06:15:08;8.60;99.90
12015;DHT22;6066;48.138;16.402;2022-10-22T06:17:35;8.70;99.90
12015;DHT22;6066;48.138;16.402;2022-10-22T06:20:03;8.80;99.90
12015;DHT22;6066;48.138;16.402;2022-10-22T06:22:30;8.80;99.90
12015;DHT22;6066;48.138;16.402;2022-10-22T06:24:56;8.90;99.90
12015;DHT22;6066;48.138;16.402;2022-10-22T06:27:23;9.00;99.90
12015;DHT22;6066;48.138;16.402;2022-10-22T06:29:50;9.00;99.90
12015;DHT22;6066;48.138;16.402;2022-10-22T06:32:17;9.00;99.90
12015;DHT22;6066;48.138;16.402;2022-10-22T06:34:45;9.10;99.90
12015;DHT22;6066;48.138;16.402;2022-10-22T06:37:14;9.20;99.90
12015;DHT22;6066;48.138;16.402;2022-10-22T06:39:40;9.20;99.90
12015;DHT22;6066;48.138;16.402;2022-10-22T06:42:07;9.40;99.90
12015;DHT22;6066;48.138;16.402;2022-10-22T06:44:34;9.50;99.90
12015;DHT22;6066;48.138;16.402;2022-10-22T06:47:00;9.60;99.90
12015;DHT22;6066;48.138;16.402;2022-10-22T06:49:27;9.70;99.90
12015;DHT22;6066;48.138;16.402;2022-10-22T06:51:54;9.80;99.90
12015;DHT22;6066;48.138;16.402;2022-10-22T06:54:22;9.90;99.90
12015;DHT22;6066;48.138;16.402;2022-10-22T06:56:49;10.10;99.90
12015;DHT22;6066;48.138;16.402;2022-10-22T06:59:15;10.20;99.90
12015;DHT22;6066;48.138;16.402;2022-10-22T07:01:42;10.30;99.90
12015;DHT22;6066;48.138;16.402;2022-10-22T07:04:09;10.50;99.90
12015;DHT22;6066;48.138;16.402;2022-10-22T07:06:35;10.50;99.90
12015;DHT22;6066;48.138;16.402;2022-10-22T07:09:02;10.60;99.90
12015;DHT22;6066;48.138;16.402;2022-10-22T07:11:31;10.70;99.90
12015;DHT22;6066;48.138;16.402;2022-10-22T07:14:03;10.80;99.90
12015;DHT22;6066;48.138;16.402;2022-10-22T07:16:29;10.80;99.90
12015;DHT22;6066;48.138;16.402;2022-10-22T07:18:56;10.90;99.90
12015;DHT22;6066;48.138;16.402;2022-10-22T07:21:23;10.90;99.90
12015;DHT22;6066;48.138;16.402;2022-10-22T07:23:50;11.00;99.90
12015;DHT22;6066;48.138;16.402;2022-10-22T07:26:17;11.00;99.90
12015;DHT22;6066;48.138;16.402;2022-10-22T07:28:47;11.00;99.90
12015;DHT22;6066;48.138;16.402;2022-10-22T07:31:13;11.00;99.90
12015;DHT22;6066;48.138;16.402;2022-10-22T07:33:40;11.00;99.90
12015;DHT22;6066;48.138;16.402;2022-10-22T07:36:08;11.00;99.90
12015;DHT22;6066;48.138;16.402;2022-10-22T07:38:35;10.90;99.90
12015;DHT22;6066;48.138;16.402;2022-10-22T07:41:02;10.90;99.90
12015;DHT22;6066;48.138;16.402;2022-10-22T07:43:29;10.90;99.90
12015;DHT22;6066;48.138;16.402;2022-10-22T07:45:57;10.90;99.90
12015;DHT22;6066;48.138;16.402;2022-10-22T07:48:24;11.00;99.90
12015;DHT22;6066;48.138;16.402;2022-10-22T07:50:51;11.10;99.90
12015;DHT22;6066;48.138;16.402;2022-10-22T07:53:17;11.10;99.90
12015;DHT22;6066;48.138;16.402;2022-10-22T07:55:46;11.10;99.90
12015;DHT22;6066;48.138;16.402;2022-10-22T07:58:13;11.20;99.90
12015;DHT22;6066;48.138;16.402;2022-10-22T08:00:40;11.20;99.90
12015;DHT22;6066;48.138;16.402;2022-10-22T08:03:08;11.30;99.90
12015;DHT22;6066;48.138;16.402;2022-10-22T08:05:36;11.30;99.90
12015;DHT22;6066;48.138;16.402;2022-10-22T08:08:03;11.30;99.90
12015;DHT22;6066;48.138;16.402;2022-10-22T08:10:30;11.30;99.90
12015;DHT22;6066;48.138;16.402;2022-10-22T08:12:57;11.40;99.90
12015;DHT22;6066;48.138;16.402;2022-10-22T08:15:23;11.50;99.90
12015;DHT22;6066;48.138;16.402;2022-10-22T08:17:51;11.50;99.90
12015;DHT22;6066;48.138;16.402;2022-10-22T08:20:19;11.60;99.90
12015;DHT22;6066;48.138;16.402;2022-10-22T08:22:46;11.70;99.90
12015;DHT22;6066;48.138;16.402;2022-10-22T08:25:13;11.80;99.90
12015;DHT22;6066;48.138;16.402;2022-10-22T08:27:39;11.90;99.90
12015;DHT22;6066;48.138;16.402;2022-10-22T08:30:06;12.00;99.90
12015;DHT22;6066;48.138;16.402;2022-10-22T08:32:33;12.00;99.90
12015;DHT22;6066;48.138;16.402;2022-10-22T08:35:00;12.00;99.90
12015;DHT22;6066;48.138;16.402;2022-10-22T08:37:28;12.00;99.90
12015;DHT22;6066;48.138;16.402;2022-10-22T08:39:55;12.00;99.90
12015;DHT22;6066;48.138;16.402;2022-10-22T08:42:27;12.00;99.90
12015;DHT22;6066;48.138;16.402;2022-10-22T08:45:00;12.00;99.90
12015;DHT22;6066;48.138;16.402;2022-10-22T08:47:36;12.00;99.90
12015;DHT22;6066;48.138;16.402;2022-10-22T08:50:07;12.10;99.90
12015;DHT22;6066;48.138;16.402;2022-10-22T08:52:36;12.10;99.90
12015;DHT22;6066;48.138;16.402;2022-10-22T08:55:04;12.10;99.90
12015;DHT22;6066;48.138;16.402;2022-10-22T08:57:38;12.10;99.90
12015;DHT22;6066;48.138;16.402;2022-10-22T09:00:09;12.10;99.90
12015;DHT22;6066;48.138;16.402;2022-10-22T09:02:39;12.10;99.90
12015;DHT22;6066;48.138;16.402;2022-10-22T09:05:18;12.00;99.90
12015;DHT22;6066;48.138;16.402;2022-10-22T09:07:49;12.00;99.90
12015;DHT22;6066;48.138;16.402;2022-10-22T09:10:17;11.90;99.90
12015;DHT22;6066;48.138;16.402;2022-10-22T09:12:44;11.80;99.90
12015;DHT22;6066;48.138;16.402;2022-10-22T09:15:13;11.80;99.90
12015;DHT22;6066;48.138;16.402;2022-10-22T09:17:42;11.70;99.90
12015;DHT22;6066;48.138;16.402;2022-10-22T09:20:12;11.70;99.90
12015;DHT22;6066;48.138;16.402;2022-10-22T09:22:42;11.60;99.90
12015;DHT22;6066;48.138;16.402;2022-10-22T09:25:15;11.60;99.90
12015;DHT22;6066;48.138;16.402;2022-10-22T09:27:43;11.60;99.90
12015;DHT22;6066;48.138;16.402;2022-10-22T09:30:11;11.60;99.90
12015;DHT22;6066;48.138;16.402;2022-10-22T09:32:39;11.50;99.90
12015;DHT22;6066;48.138;16.402;2022-10-22T09:35:08;11.50;99.90
12015;DHT22;6066;48.138;16.402;2022-10-22T09:37:35;11.50;99.90
12015;DHT22;6066;48.138;16.402;2022-10-22T09:40:02;11.50;99.90
12015;DHT22;6066;48.138;16.402;2022-10-22T09:42:31;11.60;99.90
12015;DHT22;6066;48.138;16.402;2022-10-22T09:44:59;11.60;99.90
12015;DHT22;6066;48.138;16.402;2022-10-22T09:47:31;11.60;99.90
12015;DHT22;6066;48.138;16.402;2022-10-22T09:50:08;11.60;99.90
12015;DHT22;6066;48.138;16.402;2022-10-22T09:52:38;11.60;99.90
12015;DHT22;6066;48.138;16.402;2022-10-22T09:55:10;11.70;99.90
12015;DHT22;6066;48.138;16.402;2022-10-22T09:57:39;11.70;99.90
12015;DHT22;6066;48.138;16.402;2022-10-22T10:00:07;11.70;99.90
12015;DHT22;6066;48.138;16.402;2022-10-22T10:02:34;11.70;99.90
12015;DHT22;6066;48.138;16.402;2022-10-22T10:05:02;11.70;99.90
12015;DHT22;6066;48.138;16.402;2022-10-22T10:07:30;11.70;99.90
12015;DHT22;6066;48.138;16.402;2022-10-22T10:09:57;11.70;99.90
12015;DHT22;6066;48.138;16.402;2022-10-22T10:12:27;11.70;99.90
12015;DHT22;6066;48.138;16.402;2022-10-22T10:14:59;11.80;99.90
12015;DHT22;6066;48.138;16.402;2022-10-22T10:17:30;11.70;99.90
12015;DHT22;6066;48.138;16.402;2022-10-22T10:20:00;11.70;99.90
12015;DHT22;6066;48.138;16.402;2022-10-22T10:22:33;11.70;99.90
12015;DHT22;6066;48.138;16.402;2022-10-22T10:25:19;11.80;99.90
12015;DHT22;6066;48.138;16.402;2022-10-22T10:27:51;11.80;99.90
12015;DHT22;6066;48.138;16.402;2022-10-22T10:30:22;11.80;99.90
12015;DHT22;6066;48.138;16.402;2022-10-22T10:32:53;11.90;99.90
12015;DHT22;6066;48.138;16.402;2022-10-22T10:35:21;11.90;99.90
12015;DHT22;6066;48.138;16.402;2022-10-22T10:37:52;11.90;99.90
12015;DHT22;6066;48.138;16.402;2022-10-22T10:40:24;12.00;99.90
12015;DHT22;6066;48.138;16.402;2022-10-22T10:42:53;12.10;99.90
12015;DHT22;6066;48.138;16.402;2022-10-22T10:45:23;12.10;99.90
12015;DHT22;6066;48.138;16.402;2022-10-22T10:47:59;12.20;99.90
12015;DHT22;6066;48.138;16.402;2022-10-22T10:50:28;12.20;99.90
12015;DHT22;6066;48.138;16.402;2022-10-22T10:52:59;12.20;99.90
12015;DHT22;6066;48.138;16.402;2022-10-22T10:55:28;12.20;99.90
12015;DHT22;6066;48.138;16.402;2022-10-22T10:57:59;12.20;99.90
12015;DHT22;6066;48.138;16.402;2022-10-22T11:00:31;12.20;99.90
12015;DHT22;6066;48.138;16.402;2022-10-22T11:03:04;12.20;99.90
12015;DHT22;6066;48.138;16.402;2022-10-22T11:05:37;12.30;99.90
12015;DHT22;6066;48.138;16.402;2022-10-22T11:08:07;12.30;99.90
12015;DHT22;6066;48.138;16.402;2022-10-22T11:10:36;12.40;99.90
12015;DHT22;6066;48.138;16.402;2022-10-22T11:13:06;12.50;99.90
12015;DHT22;6066;48.138;16.402;2022-10-22T11:15:36;12.50;99.90
12015;DHT22;6066;48.138;16.402;2022-10-22T11:18:05;12.60;99.90
12015;DHT22;6066;48.138;16.402;2022-10-22T11:20:37;12.60;99.90
12015;DHT22;6066;48.138;16.402;2022-10-22T11:23:08;12.70;99.90
12015;DHT22;6066;48.138;16.402;2022-10-22T11:25:37;12.70;99.90
12015;DHT22;6066;48.138;16.402;2022-10-22T11:28:08;12.90;99.90
12015;DHT22;6066;48.138;16.402;2022-10-22T11:30:38;13.00;99.90
12015;DHT22;6066;48.138;16.402;2022-10-22T11:33:09;13.20;99.90
12015;DHT22;6066;48.138;16.402;2022-10-22T11:35:36;13.40;99.90
12015;DHT22;6066;48.138;16.402;2022-10-22T11:38:05;13.40;99.90
12015;DHT22;6066;48.138;16.402;2022-10-22T11:40:32;13.40;99.90
12015;DHT22;6066;48.138;16.402;2022-10-22T11:43:02;13.40;99.90
12015;DHT22;6066;48.138;16.402;2022-10-22T11:45:30;13.40;99.90
12015;DHT22;6066;48.138;16.402;2022-10-22T11:48:04;13.40;99.90
12015;DHT22;6066;48.138;16.402;2022-10-22T11:50:45;13.50;99.90
12015;DHT22;6066;48.138;16.402;2022-10-22T11:53:20;13.50;99.90
12015;DHT22;6066;48.138;16.402;2022-10-22T11:55:52;13.50;99.90
12015;DHT22;6066;48.138;16.402;2022-10-22T11:58:34;13.50;99.90
12015;DHT22;6066;48.138;16.402;2022-10-22T12:01:16;13.50;99.90
12015;DHT22;6066;48.138;16.402;2022-10-22T12:03:48;13.50;99.90
12015;DHT22;6066;48.138;16.402;2022-10-22T12:06:17;13.50;99.90
12015;DHT22;6066;48.138;16.402;2022-10-22T12:08:45;13.50;99.90
12015;DHT22;6066;48.138;16.402;2022-10-22T12:11:19;13.50;99.90
12015;DHT22;6066;48.138;16.402;2022-10-22T12:13:57;13.50;99.90
12015;DHT22;6066;48.138;16.402;2022-10-22T12:16:27;13.50;99.90
12015;DHT22;6066;48.138;16.402;2022-10-22T12:18:57;13.60;99.90
12015;DHT22;6066;48.138;16.402;2022-10-22T12:21:29;13.60;99.90
12015;DHT22;6066;48.138;16.402;2022-10-22T12:23:57;13.70;99.90
12015;DHT22;6066;48.138;16.402;2022-10-22T12:26:25;13.70;99.90
12015;DHT22;6066;48.138;16.402;2022-10-22T12:28:55;13.80;99.90
12015;DHT22;6066;48.138;16.402;2022-10-22T12:31:23;13.80;99.90
12015;DHT22;6066;48.138;16.402;2022-10-22T12:33:54;13.80;99.90
12015;DHT22;6066;48.138;16.402;2022-10-22T12:36:22;13.80;99.90
12015;DHT22;6066;48.138;16.402;2022-10-22T12:38:50;13.80;99.90
12015;DHT22;6066;48.138;16.402;2022-10-22T12:41:17;13.80;99.90
12015;DHT22;6066;48.138;16.402;2022-10-22T12:43:44;13.90;99.90
12015;DHT22;6066;48.138;16.402;2022-10-22T12:46:11;13.90;99.90
12015;DHT22;6066;48.138;16.402;2022-10-22T12:48:39;14.00;99.90
12015;DHT22;6066;48.138;16.402;2022-10-22T12:51:07;14.10;99.90
12015;DHT22;6066;48.138;16.402;2022-10-22T12:53:35;14.30;99.90
12015;DHT22;6066;48.138;16.402;2022-10-22T12:56:04;14.50;99.90
12015;DHT22;6066;48.138;16.402;2022-10-22T12:58:33;14.60;99.90
12015;DHT22;6066;48.138;16.402;2022-10-22T13:01:02;14.70;99.90
12015;DHT22;6066;48.138;16.402;2022-10-22T13:03:31;14.80;99.90
12015;DHT22;6066;48.138;16.402;2022-10-22T13:06:10;14.90;99.90
12015;DHT22;6066;48.138;16.402;2022-10-22T13:08:38;14.90;99.90
12015;DHT22;6066;48.138;16.402;2022-10-22T13:11:06;15.00;99.90
12015;DHT22;6066;48.138;16.402;2022-10-22T13:13:39;15.00;99.90
12015;DHT22;6066;48.138;16.402;2022-10-22T13:16:13;15.00;99.90
12015;DHT22;6066;48.138;16.402;2022-10-22T13:18:40;15.00;99.90
12015;DHT22;6066;48.138;16.402;2022-10-22T13:21:19;15.10;99.90
12015;DHT22;6066;48.138;16.402;2022-10-22T13:23:52;15.10;99.90
12015;DHT22;6066;48.138;16.402;2022-10-22T13:26:19;15.10;99.90
12015;DHT22;6066;48.138;16.402;2022-10-22T13:28:48;15.00;99.90
12015;DHT22;6066;48.138;16.402;2022-10-22T13:31:16;15.00;99.90
12015;DHT22;6066;48.138;16.402;2022-10-22T13:33:44;15.00;99.90
12015;DHT22;6066;48.138;16.402;2022-10-22T13:36:12;15.00;99.90
12015;DHT22;6066;48.138;16.402;2022-10-22T13:38:39;14.90;99.90
12015;DHT22;6066;48.138;16.402;2022-10-22T13:41:18;14.90;99.90
12015;DHT22;6066;48.138;16.402;2022-10-22T13:43:44;14.90;99.90
12015;DHT22;6066;48.138;16.402;2022-10-22T13:46:11;14.90;99.90
12015;DHT22;6066;48.138;16.402;2022-10-22T13:48:38;14.90;99.90
12015;DHT22;6066;48.138;16.402;2022-10-22T13:51:05;14.80;99.90
12015;DHT22;6066;48.138;16.402;2022-10-22T13:53:35;14.80;99.90
12015;DHT22;6066;48.138;16.402;2022-10-22T13:56:02;14.90;99.90
12015;DHT22;6066;48.138;16.402;2022-10-22T13:58:30;14.90;99.90
12015;DHT22;6066;48.138;16.402;2022-10-22T14:00:57;14.90;99.90
12015;DHT22;6066;48.138;16.402;2022-10-22T14:03:25;14.90;99.90
12015;DHT22;6066;48.138;16.402;2022-10-22T14:05:52;14.90;99.90
12015;DHT22;6066;48.138;16.402;2022-10-22T14:08:19;14.90;99.90
12015;DHT22;6066;48.138;16.402;2022-10-22T14:10:46;14.90;99.90
12015;DHT22;6066;48.138;16.402;2022-10-22T14:13:13;14.80;99.90
12015;DHT22;6066;48.138;16.402;2022-10-22T14:15:42;14.80;99.90
12015;DHT22;6066;48.138;16.402;2022-10-22T14:18:10;14.80;99.90
12015;DHT22;6066;48.138;16.402;2022-10-22T14:20:38;14.80;99.90
12015;DHT22;6066;48.138;16.402;2022-10-22T14:23:10;14.70;99.90
12015;DHT22;6066;48.138;16.402;2022-10-22T14:25:38;14.70;99.90
12015;DHT22;6066;48.138;16.402;2022-10-22T14:28:05;14.70;99.90
12015;DHT22;6066;48.138;16.402;2022-10-22T14:30:31;14.60;99.90
12015;DHT22;6066;48.138;16.402;2022-10-22T14:32:59;14.60;99.90
12015;DHT22;6066;48.138;16.402;2022-10-22T14:35:26;14.60;99.90
12015;DHT22;6066;48.138;16.402;2022-10-22T14:37:53;14.70;99.90
12015;DHT22;6066;48.138;16.402;2022-10-22T14:40:19;14.60;99.90
12015;DHT22;6066;48.138;16.402;2022-10-22T14:42:47;14.70;99.90
12015;DHT22;6066;48.138;16.402;2022-10-22T14:45:16;14.70;99.90
12015;DHT22;6066;48.138;16.402;2022-10-22T14:47:43;14.60;99.90
12015;DHT22;6066;48.138;16.402;2022-10-22T14:50:11;14.60;99.90
12015;DHT22;6066;48.138;16.402;2022-10-22T14:52:38;14.60;99.90
12015;DHT22;6066;48.138;16.402;2022-10-22T14:55:05;14.50;99.90
12015;DHT22;6066;48.138;16.402;2022-10-22T14:57:32;14.50;99.90
12015;DHT22;6066;48.138;16.402;2022-10-22T14:59:58;14.50;99.90
12015;DHT22;6066;48.138;16.402;2022-10-22T15:02:25;14.40;99.90
12015;DHT22;6066;48.138;16.402;2022-10-22T15:04:52;14.50;99.90
12015;DHT22;6066;48.138;16.402;2022-10-22T15:07:20;14.50;99.90
12015;DHT22;6066;48.138;16.402;2022-10-22T15:09:49;14.60;99.90
12015;DHT22;6066;48.138;16.402;2022-10-22T15:12:15;14.60;99.90
12015;DHT22;6066;48.138;16.402;2022-10-22T15:14:42;14.60;99.90
12015;DHT22;6066;48.138;16.402;2022-10-22T15:17:09;14.60;99.90
12015;DHT22;6066;48.138;16.402;2022-10-22T15:19:35;14.50;99.90
12015;DHT22;6066;48.138;16.402;2022-10-22T15:22:02;14.50;99.90
12015;DHT22;6066;48.138;16.402;2022-10-22T15:24:31;14.50;99.90
12015;DHT22;6066;48.138;16.402;2022-10-22T15:26:58;14.50;99.90
12015;DHT22;6066;48.138;16.402;2022-10-22T15:29:24;14.50;99.90
12015;DHT22;6066;48.138;16.402;2022-10-22T15:31:52;14.50;99.90
12015;DHT22;6066;48.138;16.402;2022-10-22T15:34:22;14.50;99.90
12015;DHT22;6066;48.138;16.402;2022-10-22T15:36:49;14.40;99.90
12015;DHT22;6066;48.138;16.402;2022-10-22T15:39:16;14.30;99.90
12015;DHT22;6066;48.138;16.402;2022-10-22T15:41:44;14.30;99.90
12015;DHT22;6066;48.138;16.402;2022-10-22T15:44:13;14.20;99.90
12015;DHT22;6066;48.138;16.402;2022-10-22T15:46:40;14.10;99.90
12015;DHT22;6066;48.138;16.402;2022-10-22T15:49:07;14.00;99.90